Time;durP1;ratioP1;P1;durP2;ratioP2;P2;SDS_P1;SDS_P2;PMS_P1;PMS_P2;Temp;Humidity;BMP_temperature;BMP_pressure;BME280_temperature;BME280_humidity;BME280_pressure;Samples;Min_cycle;Max_cycle;Signal;HPM_P1;HPM_P2
2023/04/23 00:00:11;;;;;;;0.60;0.60;;;;;11.70;95378.00;;;;5054813;28;20203;-61
2023/04/23 00:02:39;;;;;;;0.87;0.87;;;;;11.50;95375.00;;;;5054333;28;20571;-61
2023/04/23 00:05:11;;;;;;;1.00;1.00;;;;;11.50;95381.00;;;;5054780;28;20545;-60
2023/04/23 00:07:39;;;;;;;0.90;0.90;;;;;11.60;95381.00;;;;5036573;28;20292;-60
2023/04/23 00:10:08;;;;;;;0.60;0.60;;;;;11.50;95383.00;;;;5054927;28;20741;-60
2023/04/23 00:12:36;;;;;;;0.80;0.80;;;;;11.50;95379.00;;;;5054265;28;20270;-60
2023/04/23 00:15:05;;;;;;;1.10;1.10;;;;;11.40;95375.00;;;;5054211;28;20682;-61
2023/04/23 00:17:34;;;;;;;0.73;0.73;;;;;11.40;95380.00;;;;5054274;28;20192;-60
2023/04/23 00:20:01;;;;;;;0.93;0.93;;;;;11.30;95382.00;;;;5054138;28;20774;-60
2023/04/23 00:22:29;;;;;;;1.13;1.13;;;;;11.50;95391.00;;;;5053887;28;20219;-61
2023/04/23 00:24:56;;;;;;;0.90;0.90;;;;;11.60;95394.00;;;;5068022;22;20232;-62
2023/04/23 00:27:23;;;;;;;1.00;1.00;;;;;11.40;95396.00;;;;5053850;28;20215;-64
2023/04/23 00:29:51;;;;;;;1.20;1.20;;;;;11.50;95394.00;;;;5053871;28;20664;-63
2023/04/23 00:32:18;;;;;;;0.80;0.80;;;;;11.60;95405.00;;;;5053764;28;20659;-64
2023/04/23 00:34:47;;;;;;;0.60;0.60;;;;;11.80;95404.00;;;;5053730;28;20211;-64
2023/04/23 00:37:15;;;;;;;0.77;0.77;;;;;11.70;95402.00;;;;5053717;28;20211;-64
2023/04/23 00:39:42;;;;;;;1.17;1.17;;;;;11.70;95404.00;;;;5053772;28;20196;-63
2023/04/23 00:42:11;;;;;;;1.50;1.10;;;;;11.70;95410.00;;;;5053928;28;20188;-63
2023/04/23 00:44:40;;;;;;;1.13;1.10;;;;;11.80;95415.00;;;;5053600;28;20793;-63
2023/04/23 00:47:08;;;;;;;1.23;1.13;;;;;11.60;95408.00;;;;5053794;28;20214;-64
2023/04/23 00:49:35;;;;;;;0.80;0.80;;;;;11.70;95405.00;;;;5053840;28;20199;-63
2023/04/23 00:52:04;;;;;;;0.60;0.60;;;;;11.70;95410.00;;;;5053588;28;20246;-63
2023/04/23 00:54:32;;;;;;;1.03;1.03;;;;;11.70;95406.00;;;;5053506;28;20212;-63
2023/04/23 00:57:00;;;;;;;1.90;1.47;;;;;11.70;95400.00;;;;5035466;28;20223;-63
2023/04/23 00:59:29;;;;;;;0.67;0.67;;;;;11.60;95407.00;;;;5053723;28;20265;-64
2023/04/23 01:01:57;;;;;;;0.70;0.70;;;;;11.60;95410.00;;;;5053340;28;20286;-63
2023/04/23 01:04:27;;;;;;;0.60;0.60;;;;;11.50;95416.00;;;;5053357;28;20254;-63
2023/04/23 01:06:54;;;;;;;1.43;1.33;;;;;11.60;95411.00;;;;5035358;28;20252;-62
2023/04/23 01:09:23;;;;;;;0.80;0.80;;;;;11.60;95410.00;;;;5053300;28;20192;-64
2023/04/23 01:11:52;;;;;;;0.73;0.73;;;;;11.60;95413.00;;;;5053213;28;20656;-63
2023/04/23 01:14:20;;;;;;;0.70;0.70;;;;;11.40;95411.00;;;;5052500;28;20286;-64
2023/04/23 01:16:47;;;;;;;1.30;1.20;;;;;11.40;95407.00;;;;5053054;28;20694;-64
2023/04/23 01:19:15;;;;;;;0.80;0.80;;;;;11.50;95411.00;;;;5053074;28;20192;-63
2023/04/23 01:21:43;;;;;;;0.70;0.70;;;;;11.50;95404.00;;;;5053123;28;20195;-64
2023/04/23 01:24:12;;;;;;;0.80;0.80;;;;;11.40;95407.00;;;;5053087;28;20302;-64
2023/04/23 01:26:40;;;;;;;0.80;0.80;;;;;11.20;95414.00;;;;5053608;28;20286;-64
2023/04/23 01:29:08;;;;;;;0.57;0.57;;;;;11.30;95410.00;;;;5053035;28;20276;-64
2023/04/23 01:31:36;;;;;;;0.70;0.70;;;;;11.10;95407.00;;;;5053056;28;20589;-63
2023/04/23 01:34:04;;;;;;;0.80;0.80;;;;;11.20;95412.00;;;;5053207;28;20216;-63
2023/04/23 01:36:32;;;;;;;0.70;0.70;;;;;11.20;95410.00;;;;5052834;28;20215;-64
2023/04/23 01:39:00;;;;;;;0.70;0.70;;;;;11.20;95410.00;;;;5052892;28;20659;-63
2023/04/23 01:41:29;;;;;;;0.60;0.60;;;;;11.20;95419.00;;;;5053087;28;20188;-65
2023/04/23 01:43:58;;;;;;;1.10;1.00;;;;;11.10;95409.00;;;;5052731;28;20238;-65
2023/04/23 01:46:26;;;;;;;1.00;1.00;;;;;11.30;95412.00;;;;5053387;28;20192;-64
2023/04/23 01:48:53;;;;;;;2.73;0.80;;;;;11.20;95404.00;;;;5034970;28;20761;-63
2023/04/23 01:51:22;;;;;;;0.83;0.83;;;;;11.20;95421.00;;;;5053050;28;20263;-63
2023/04/23 01:53:49;;;;;;;0.70;0.70;;;;;11.20;95412.00;;;;5052907;28;20216;-63
2023/04/23 01:56:19;;;;;;;0.53;0.53;;;;;11.30;95417.00;;;;5052650;28;20219;-64
2023/04/23 01:58:48;;;;;;;0.50;0.50;;;;;11.30;95419.00;;;;5052943;28;20200;-63
2023/04/23 02:01:15;;;;;;;0.50;0.50;;;;;11.10;95419.00;;;;5052923;28;20200;-62
2023/04/23 02:03:43;;;;;;;0.70;0.70;;;;;11.20;95420.00;;;;5052633;28;20699;-63
2023/04/23 02:06:11;;;;;;;0.90;0.90;;;;;11.00;95422.00;;;;5052669;28;20229;-63
2023/04/23 02:08:38;;;;;;;0.60;0.60;;;;;11.00;95415.00;;;;5052687;28;20200;-63
2023/04/23 02:11:06;;;;;;;0.53;0.53;;;;;10.90;95427.00;;;;5052882;28;20265;-63
2023/04/23 02:13:33;;;;;;;0.73;0.73;;;;;10.90;95424.00;;;;5052773;28;20199;-63
2023/04/23 02:16:02;;;;;;;0.60;0.60;;;;;11.00;95425.00;;;;5034537;28;20227;-63
2023/04/23 02:18:30;;;;;;;0.57;0.57;;;;;10.80;95423.00;;;;5052812;28;20192;-63
2023/04/23 02:20:58;;;;;;;0.70;0.70;;;;;10.80;95423.00;;;;5052497;28;20679;-63
2023/04/23 02:23:25;;;;;;;0.63;0.63;;;;;10.80;95434.00;;;;5052561;28;20192;-63
2023/04/23 02:25:53;;;;;;;0.50;0.50;;;;;10.90;95423.00;;;;5055513;28;20266;-64
2023/04/23 02:28:20;;;;;;;0.60;0.60;;;;;10.80;95425.00;;;;5038296;28;20619;-64
2023/04/23 02:30:47;;;;;;;0.50;0.50;;;;;10.60;95418.00;;;;5056633;28;20207;-64
2023/04/23 02:33:18;;;;;;;0.60;0.60;;;;;10.70;95416.00;;;;5056008;28;20192;-62
2023/04/23 02:35:45;;;;;;;0.60;0.60;;;;;10.70;95415.00;;;;5056385;28;20550;-63
2023/04/23 02:38:13;;;;;;;0.50;0.50;;;;;10.60;95404.00;;;;5055999;28;20192;-63
2023/04/23 02:40:40;;;;;;;0.63;0.63;;;;;10.70;95406.00;;;;5055935;28;20196;-64
2023/04/23 02:43:08;;;;;;;1.17;1.17;;;;;10.70;95414.00;;;;5056018;28;20241;-64
2023/04/23 02:45:35;;;;;;;0.60;0.60;;;;;10.80;95408.00;;;;5056361;28;20262;-64
2023/04/23 02:48:03;;;;;;;0.50;0.50;;;;;10.70;95401.00;;;;5055864;28;20242;-63
2023/04/23 02:50:31;;;;;;;0.50;0.50;;;;;10.70;95400.00;;;;5055861;28;20192;-63
2023/04/23 02:52:59;;;;;;;0.70;0.70;;;;;10.80;95405.00;;;;5056499;28;20530;-64
2023/04/23 02:55:30;;;;;;;0.63;0.63;;;;;10.70;95402.00;;;;5055728;28;20255;-63
2023/04/23 02:57:58;;;;;;;0.60;0.60;;;;;10.70;95408.00;;;;5055960;28;20206;-64
2023/04/23 03:00:26;;;;;;;0.93;0.93;;;;;10.70;95416.00;;;;5055619;28;20777;-63
2023/04/23 03:02:53;;;;;;;1.10;0.80;;;;;10.80;95409.00;;;;5055571;28;20267;-63
2023/04/23 03:05:21;;;;;;;0.60;0.60;;;;;10.80;95408.00;;;;5055613;28;20212;-64
2023/04/23 03:07:49;;;;;;;0.70;0.70;;;;;10.80;95401.00;;;;5055434;28;20690;-64
2023/04/23 03:10:17;;;;;;;0.80;0.80;;;;;10.80;95405.00;;;;5055359;28;20200;-64
2023/04/23 03:12:44;;;;;;;0.83;0.83;;;;;10.90;95403.00;;;;5055611;28;20200;-64
2023/04/23 03:15:12;;;;;;;0.60;0.60;;;;;10.90;95399.00;;;;5055228;28;20207;-64
2023/04/23 03:17:39;;;;;;;0.60;0.60;;;;;10.90;95400.00;;;;5055224;28;20215;-64
2023/04/23 03:20:10;;;;;;;0.50;0.50;;;;;10.90;95416.00;;;;5055757;28;20192;-64
2023/04/23 03:22:37;;;;;;;0.60;0.60;;;;;11.00;95414.00;;;;5055462;28;20184;-64
2023/04/23 03:25:07;;;;;;;0.80;0.80;;;;;11.00;95410.00;;;;5055104;28;20648;-63
2023/04/23 03:27:34;;;;;;;0.57;0.57;;;;;11.00;95410.00;;;;5055071;28;20195;-63
2023/04/23 03:30:02;;;;;;;0.40;0.40;;;;;11.00;95415.00;;;;5055056;28;20197;-64
2023/04/23 03:32:29;;;;;;;0.50;0.50;;;;;11.00;95420.00;;;;5055448;28;20192;-64
2023/04/23 03:34:57;;;;;;;0.60;0.60;;;;;10.90;95418.00;;;;5054844;28;20220;-65
2023/04/23 03:37:24;;;;;;;0.67;0.67;;;;;11.00;95425.00;;;;5054059;28;20223;-64
2023/04/23 03:39:51;;;;;;;0.70;0.70;;;;;11.00;95419.00;;;;5054880;28;20192;-64
2023/04/23 03:42:20;;;;;;;0.53;0.53;;;;;10.90;95421.00;;;;5054787;28;20196;-64
2023/04/23 03:44:47;;;;;;;0.60;0.60;;;;;10.80;95415.00;;;;5054971;28;20242;-64
2023/04/23 03:47:15;;;;;;;0.70;0.70;;;;;10.60;95416.00;;;;5055015;28;20656;-64
2023/04/23 03:49:42;;;;;;;0.50;0.50;;;;;10.50;95415.00;;;;5054989;28;20273;-64
2023/04/23 03:52:11;;;;;;;0.60;0.60;;;;;10.60;95410.00;;;;5054590;28;20192;-64
2023/04/23 03:54:39;;;;;;;0.63;0.63;;;;;10.60;95412.00;;;;5054751;28;20220;-63
2023/04/23 03:57:06;;;;;;;0.53;0.53;;;;;10.40;95410.00;;;;5054412;28;20219;-64
2023/04/23 03:59:35;;;;;;;0.73;0.73;;;;;10.40;95417.00;;;;5036653;28;20203;-64
2023/04/23 04:02:03;;;;;;;0.50;0.50;;;;;10.40;95417.00;;;;5054492;28;20251;-63
2023/04/23 04:04:30;;;;;;;0.50;0.50;;;;;10.50;95414.00;;;;5054464;28;20239;-63
2023/04/23 04:06:59;;;;;;;0.60;0.60;;;;;10.50;95419.00;;;;5054821;28;20194;-63
2023/04/23 04:09:26;;;;;;;0.93;0.93;;;;;10.30;95409.00;;;;5054499;28;20200;-62
2023/04/23 04:11:54;;;;;;;1.07;0.97;;;;;10.30;95413.00;;;;5054240;28;20196;-64
2023/04/23 04:14:22;;;;;;;0.40;0.40;;;;;10.40;95414.00;;;;5054076;28;20216;-63
2023/04/23 04:16:51;;;;;;;0.60;0.60;;;;;10.30;95413.00;;;;5036088;28;20220;-63
2023/04/23 04:19:20;;;;;;;0.60;0.60;;;;;10.50;95413.00;;;;5036235;28;20685;-63
2023/04/23 04:21:47;;;;;;;0.60;0.60;;;;;10.60;95423.00;;;;5054214;28;20646;-64
2023/04/23 04:24:15;;;;;;;0.67;0.67;;;;;10.30;95425.00;;;;5053800;28;20220;-64
2023/04/23 04:26:43;;;;;;;0.60;0.60;;;;;10.20;95417.00;;;;5054134;28;20188;-62
2023/04/23 04:29:10;;;;;;;0.97;0.97;;;;;10.10;95411.00;;;;5054107;28;20203;-63
2023/04/23 04:31:40;;;;;;;0.50;0.50;;;;;10.20;95413.00;;;;5054027;28;20667;-64
2023/04/23 04:34:09;;;;;;;0.70;0.70;;;;;10.30;95409.00;;;;5054524;28;20633;-63
2023/04/23 04:36:36;;;;;;;0.70;0.70;;;;;10.20;95414.00;;;;5053687;28;20203;-63
2023/04/23 04:39:04;;;;;;;0.60;0.60;;;;;10.20;95410.00;;;;5053796;28;20192;-64
2023/04/23 04:41:31;;;;;;;0.63;0.63;;;;;10.20;95408.00;;;;5053672;28;20196;-63
2023/04/23 04:43:59;;;;;;;0.60;0.60;;;;;10.20;95404.00;;;;5053546;28;20216;-64
2023/04/23 04:46:27;;;;;;;0.70;0.70;;;;;10.30;95414.00;;;;5053559;28;20203;-64
2023/04/23 04:48:55;;;;;;;0.63;0.63;;;;;10.30;95414.00;;;;5053500;28;20192;-64
2023/04/23 04:51:24;;;;;;;0.60;0.60;;;;;10.50;95415.00;;;;5053484;28;20254;-64
2023/04/23 04:53:51;;;;;;;0.77;0.77;;;;;10.50;95411.00;;;;5053648;28;20220;-63
2023/04/23 04:56:19;;;;;;;0.50;0.50;;;;;10.60;95411.00;;;;5053910;28;20192;-62
2023/04/23 04:58:46;;;;;;;0.60;0.60;;;;;10.70;95406.00;;;;5053276;28;20212;-63
2023/04/23 05:01:13;;;;;;;0.70;0.70;;;;;10.70;95401.00;;;;5035644;28;20682;-63
2023/04/23 05:03:41;;;;;;;0.50;0.50;;;;;10.90;95396.00;;;;5035292;28;20211;-63
2023/04/23 05:06:08;;;;;;;0.50;0.50;;;;;10.90;95400.00;;;;5053440;28;20234;-64
2023/04/23 05:08:41;;;;;;;0.50;0.50;;;;;10.80;95410.00;;;;5053503;28;20191;-63
2023/04/23 05:11:08;;;;;;;0.60;0.60;;;;;10.90;95397.00;;;;5053402;28;20271;-63
2023/04/23 05:13:36;;;;;;;0.70;0.70;;;;;10.90;95405.00;;;;5053116;28;20706;-64
2023/04/23 05:16:03;;;;;;;0.80;0.80;;;;;10.90;95412.00;;;;5053128;28;20253;-63
2023/04/23 05:18:31;;;;;;;0.60;0.60;;;;;10.80;95401.00;;;;5053498;28;20220;-63
2023/04/23 05:20:58;;;;;;;0.70;0.70;;;;;10.80;95398.00;;;;5053016;28;20215;-63
2023/04/23 05:23:25;;;;;;;0.60;0.60;;;;;10.60;95403.00;;;;5052934;28;20199;-65
2023/04/23 05:25:55;;;;;;;0.60;0.60;;;;;10.70;95404.00;;;;5053296;28;20262;-63
2023/04/23 05:28:23;;;;;;;0.67;0.67;;;;;10.80;95410.00;;;;5052992;28;20198;-64
2023/04/23 05:30:51;;;;;;;0.73;0.73;;;;;10.90;95413.00;;;;5053218;28;20198;-63
2023/04/23 05:33:18;;;;;;;0.53;0.53;;;;;10.90;95407.00;;;;5052866;28;20192;-63
2023/04/23 05:35:46;;;;;;;0.70;0.70;;;;;11.00;95407.00;;;;5052940;28;20203;-63
2023/04/23 05:38:13;;;;;;;0.70;0.70;;;;;11.10;95415.00;;;;5052829;28;20216;-63
2023/04/23 05:40:40;;;;;;;0.50;0.50;;;;;11.30;95409.00;;;;5053370;28;20200;-64
2023/04/23 05:43:11;;;;;;;0.60;0.60;;;;;11.30;95410.00;;;;5052818;28;20196;-63
2023/04/23 05:45:39;;;;;;;0.60;0.60;;;;;11.20;95405.00;;;;5052752;28;20208;-64
2023/04/23 05:48:06;;;;;;;1.00;1.00;;;;;11.40;95404.00;;;;5053351;28;20184;-63
2023/04/23 05:50:33;;;;;;;0.70;0.70;;;;;11.00;95403.00;;;;5052877;28;20196;-64
2023/04/23 05:53:01;;;;;;;0.50;0.50;;;;;11.20;95405.00;;;;5035027;28;20714;-64
2023/04/23 05:55:28;;;;;;;0.77;0.77;;;;;11.30;95393.00;;;;5052687;28;20254;-63
2023/04/23 05:57:55;;;;;;;0.60;0.60;;;;;11.20;95394.00;;;;5052550;28;20219;-63
2023/04/23 06:00:24;;;;;;;0.60;0.60;;;;;11.20;95396.00;;;;5055045;28;20671;-63
2023/04/23 06:02:54;;;;;;;0.70;0.70;;;;;11.40;95394.00;;;;5056874;28;20310;-64
2023/04/23 06:05:22;;;;;;;0.70;0.70;;;;;11.50;95409.00;;;;5057461;28;20212;-64
2023/04/23 06:07:49;;;;;;;1.00;1.00;;;;;11.40;95400.00;;;;5056441;28;20203;-64
2023/04/23 06:10:17;;;;;;;0.60;0.60;;;;;11.30;95409.00;;;;5039560;28;20204;-64
2023/04/23 06:12:48;;;;;;;0.57;0.57;;;;;11.40;95402.00;;;;5056961;28;20250;-64
2023/04/23 06:15:15;;;;;;;0.60;0.60;;;;;11.70;95411.00;;;;5056378;28;20240;-64
2023/04/23 06:17:44;;;;;;;0.70;0.70;;;;;11.70;95401.00;;;;5056240;28;20262;-64
2023/04/23 06:20:11;;;;;;;0.60;0.60;;;;;11.50;95410.00;;;;5056489;28;20196;-64
2023/04/23 06:22:39;;;;;;;0.50;0.50;;;;;11.80;95411.00;;;;5056275;28;20222;-64
2023/04/23 06:25:07;;;;;;;0.60;0.60;;;;;11.90;95404.00;;;;5056225;28;20311;-63
2023/04/23 06:27:34;;;;;;;2.43;0.70;;;;;11.70;95404.00;;;;5056465;28;20184;-63
2023/04/23 06:30:02;;;;;;;0.60;0.60;;;;;11.80;95397.00;;;;5056427;28;20326;-63
2023/04/23 06:32:29;;;;;;;0.60;0.60;;;;;11.60;95398.00;;;;5056258;28;20720;-63
2023/04/23 06:34:58;;;;;;;0.60;0.60;;;;;11.60;95398.00;;;;5055943;28;20695;-63
2023/04/23 06:37:27;;;;;;;0.57;0.57;;;;;11.80;95393.00;;;;5056116;28;20270;-64
2023/04/23 06:39:54;;;;;;;0.70;0.70;;;;;11.50;95384.00;;;;5056010;28;20254;-62
2023/04/23 06:42:21;;;;;;;0.50;0.50;;;;;11.70;95394.00;;;;5055820;28;20253;-63
2023/04/23 06:44:50;;;;;;;3.37;0.90;;;;;11.80;95391.00;;;;5055769;28;20729;-63
2023/04/23 06:47:17;;;;;;;1.00;1.00;;;;;11.60;95390.00;;;;5056110;28;20246;-64
2023/04/23 06:49:45;;;;;;;0.60;0.60;;;;;11.70;95390.00;;;;5037868;28;20261;-64
2023/04/23 06:52:14;;;;;;;0.80;0.80;;;;;11.80;95392.00;;;;5055567;28;20619;-64
2023/04/23 06:54:41;;;;;;;0.60;0.60;;;;;12.00;95395.00;;;;5055634;28;20216;-63
2023/04/23 06:57:09;;;;;;;0.80;0.80;;;;;12.20;95391.00;;;;5055614;28;20200;-64
2023/04/23 06:59:36;;;;;;;0.60;0.60;;;;;11.80;95397.00;;;;5055789;28;20190;-63
2023/04/23 07:02:04;;;;;;;0.50;0.50;;;;;12.20;95381.00;;;;5055520;28;20555;-64
2023/04/23 07:04:31;;;;;;;0.73;0.73;;;;;12.50;95391.00;;;;5055421;28;20218;-63
2023/04/23 07:06:59;;;;;;;0.67;0.67;;;;;12.80;95379.00;;;;5055454;28;20258;-63
2023/04/23 07:09:28;;;;;;;0.50;0.50;;;;;13.10;95387.00;;;;5055316;28;20195;-64
2023/04/23 07:11:56;;;;;;;0.50;0.50;;;;;13.50;95375.00;;;;5054618;28;20188;-64
2023/04/23 07:14:23;;;;;;;0.47;0.47;;;;;13.30;95375.00;;;;5055217;28;20212;-64
2023/04/23 07:16:51;;;;;;;0.60;0.60;;;;;13.00;95383.00;;;;5055818;28;20196;-63
2023/04/23 07:19:18;;;;;;;0.50;0.50;;;;;12.30;95373.00;;;;5037199;28;20219;-64
2023/04/23 07:21:45;;;;;;;0.60;0.60;;;;;12.60;95372.00;;;;5055151;28;20192;-64
2023/04/23 07:24:13;;;;;;;0.63;0.63;;;;;13.00;95376.00;;;;5055141;28;20228;-64
2023/04/23 07:26:41;;;;;;;0.40;0.40;;;;;13.30;95376.00;;;;5055288;28;20218;-64
2023/04/23 07:29:10;;;;;;;0.50;0.50;;;;;13.60;95379.00;;;;5055293;28;20200;-64
2023/04/23 07:31:40;;;;;;;0.67;0.67;;;;;12.90;95373.00;;;;5054942;28;20291;-65
2023/04/23 07:34:08;;;;;;;0.40;0.40;;;;;13.10;95370.00;;;;5055168;28;20208;-65
2023/04/23 07:36:36;;;;;;;0.90;0.90;;;;;12.50;95369.00;;;;5055559;28;20204;-65
2023/04/23 07:39:04;;;;;;;0.70;0.70;;;;;12.70;95358.00;;;;5055043;28;20227;-65
2023/04/23 07:41:31;;;;;;;0.60;0.60;;;;;13.00;95364.00;;;;5054779;28;20231;-64
2023/04/23 07:44:00;;;;;;;0.50;0.50;;;;;13.40;95360.00;;;;5054603;28;20212;-65
2023/04/23 07:46:27;;;;;;;1.60;1.50;;;;;13.10;95355.00;;;;5055150;28;20192;-65
2023/04/23 07:48:55;;;;;;;1.03;1.03;;;;;13.20;95353.00;;;;5054923;28;20622;-65
2023/04/23 07:51:25;;;;;;;0.90;0.90;;;;;13.10;95337.00;;;;5054562;28;20274;-65
2023/04/23 07:53:53;;;;;;;0.47;0.47;;;;;13.50;95336.00;;;;5054443;28;20250;-65
2023/04/23 07:56:21;;;;;;;0.50;0.50;;;;;14.00;95343.00;;;;5054816;28;20533;-65
2023/04/23 07:58:49;;;;;;;0.60;0.60;;;;;14.10;95328.00;;;;5054342;28;20228;-65
2023/04/23 08:01:17;;;;;;;0.60;0.60;;;;;14.20;95327.00;;;;5054773;28;20203;-65
2023/04/23 08:03:45;;;;;;;0.83;0.83;;;;;13.80;95339.00;;;;5054251;28;20726;-65
2023/04/23 08:06:12;;;;;;;0.50;0.50;;;;;13.50;95342.00;;;;5054229;28;20192;-65
2023/04/23 08:08:40;;;;;;;0.60;0.60;;;;;14.00;95339.00;;;;5054199;28;20192;-65
2023/04/23 08:11:07;;;;;;;0.70;0.70;;;;;13.80;95326.00;;;;5054264;28;20200;-65
2023/04/23 08:13:34;;;;;;;0.67;0.67;;;;;13.70;95340.00;;;;5054352;28;20211;-64
2023/04/23 08:16:02;;;;;;;0.50;0.50;;;;;13.60;95336.00;;;;5054351;28;20192;-64
2023/04/23 08:18:30;;;;;;;0.80;0.80;;;;;13.70;95338.00;;;;5053961;28;20223;-64
2023/04/23 08:20:58;;;;;;;0.57;0.57;;;;;13.50;95332.00;;;;5054028;28;20203;-65
2023/04/23 08:23:25;;;;;;;0.60;0.60;;;;;12.90;95337.00;;;;5053928;28;20242;-65
2023/04/23 08:25:53;;;;;;;0.60;0.60;;;;;13.30;95330.00;;;;5036092;28;20204;-65
2023/04/23 08:28:20;;;;;;;0.70;0.70;;;;;13.60;95316.00;;;;5053878;28;20558;-66
2023/04/23 08:30:47;;;;;;;0.70;0.70;;;;;14.30;95306.00;;;;5054508;28;20196;-65
2023/04/23 08:33:15;;;;;;;0.63;0.63;;;;;14.80;95321.00;;;;5053803;28;20196;-64
2023/04/23 08:35:44;;;;;;;12.30;1.30;;;;;15.00;95306.00;;;;5053799;28;20263;-65
2023/04/23 08:38:11;;;;;;;0.63;0.63;;;;;15.20;95308.00;;;;5053968;28;20581;-65
2023/04/23 08:40:41;;;;;;;0.77;0.77;;;;;15.40;95312.00;;;;5053888;28;20246;-65
2023/04/23 08:43:15;;;;;;;0.60;0.60;;;;;14.90;95307.00;;;;5053994;28;20210;-66
2023/04/23 08:45:46;;;;;;;1.37;1.17;;;;;15.60;95303.00;;;;5053606;28;20196;-64
2023/04/23 08:48:14;;;;;;;0.60;0.60;;;;;15.70;95299.00;;;;5053508;28;20187;-64
2023/04/23 08:50:45;;;;;;;0.40;0.40;;;;;15.20;95288.00;;;;5053563;28;20201;-63
2023/04/23 08:53:19;;;;;;;0.60;0.60;;;;;15.20;95303.00;;;;5053539;28;20185;-64
2023/04/23 08:55:49;;;;;;;0.63;0.63;;;;;14.70;95306.00;;;;5053462;28;20220;-63
2023/04/23 08:58:16;;;;;;;0.60;0.60;;;;;15.00;95312.00;;;;5053319;28;20216;-64
2023/04/23 09:00:44;;;;;;;0.60;0.60;;;;;15.30;95296.00;;;;5053503;28;20199;-63
2023/04/23 09:03:12;;;;;;;0.50;0.50;;;;;15.70;95296.00;;;;5035458;28;20192;-63
2023/04/23 09:05:40;;;;;;;0.60;0.60;;;;;15.40;95298.00;;;;5053196;28;20258;-63
2023/04/23 09:08:10;;;;;;;0.60;0.60;;;;;15.70;95293.00;;;;5053509;28;20187;-63
2023/04/23 09:10:40;;;;;;;0.60;0.60;;;;;15.10;95299.00;;;;5053512;28;20256;-63
2023/04/23 09:13:08;;;;;;;0.50;0.50;;;;;14.90;95285.00;;;;5053398;28;20602;-63
2023/04/23 09:15:37;;;;;;;0.83;0.83;;;;;15.00;95294.00;;;;5053070;28;20216;-63
2023/04/23 09:18:05;;;;;;;0.50;0.50;;;;;15.50;95294.00;;;;5053097;28;20196;-62
2023/04/23 09:20:33;;;;;;;0.80;0.80;;;;;15.80;95296.00;;;;5053247;28;20192;-63
2023/04/23 09:23:00;;;;;;;0.70;0.70;;;;;15.50;95282.00;;;;5053271;28;20601;-62
2023/04/23 09:25:29;;;;;;;0.60;0.60;;;;;16.10;95281.00;;;;5053504;28;20702;-63
2023/04/23 09:28:00;;;;;;;0.43;0.43;;;;;16.10;95285.00;;;;5053037;28;20188;-63
2023/04/23 09:30:28;;;;;;;0.53;0.53;;;;;16.00;95282.00;;;;5053270;28;20528;-62
2023/04/23 09:32:55;;;;;;;0.70;0.70;;;;;15.90;95278.00;;;;5053144;28;20551;-61
2023/04/23 09:35:22;;;;;;;0.70;0.70;;;;;16.10;95283.00;;;;5052906;28;20223;-62
2023/04/23 09:37:52;;;;;;;0.50;0.50;;;;;16.10;95283.00;;;;5052837;28;20245;-62
2023/04/23 09:40:23;;;;;;;0.60;0.60;;;;;16.20;95277.00;;;;5053021;28;20298;-62
2023/04/23 09:42:53;;;;;;;0.50;0.50;;;;;16.40;95265.00;;;;5052865;28;20180;-63
2023/04/23 09:45:21;;;;;;;0.50;0.50;;;;;16.50;95265.00;;;;5052708;28;20270;-63
2023/04/23 09:47:52;;;;;;;0.63;0.63;;;;;16.60;95268.00;;;;5053048;28;20555;-63
2023/04/23 09:50:31;;;;;;;0.53;0.53;;;;;15.80;95276.00;;;;5052976;28;20192;-63
2023/04/23 09:52:58;;;;;;;0.50;0.50;;;;;16.30;95260.00;;;;5053337;28;20195;-63
2023/04/23 09:55:34;;;;;;;0.40;0.40;;;;;15.60;95269.00;;;;5052984;28;20218;-63
2023/04/23 09:58:03;;;;;;;0.50;0.50;;;;;16.20;95257.00;;;;5035452;28;20199;-63
2023/04/23 10:00:35;;;;;;;1.03;0.67;;;;;15.80;95253.00;;;;5034781;28;20223;-63
2023/04/23 10:03:03;;;;;;;0.70;0.70;;;;;16.30;95247.00;;;;5053175;28;20188;-63
2023/04/23 10:05:30;;;;;;;0.53;0.53;;;;;16.60;95248.00;;;;5052558;28;20223;-63
2023/04/23 10:07:58;;;;;;;0.50;0.50;;;;;17.00;95251.00;;;;5053171;28;20187;-63
2023/04/23 10:10:26;;;;;;;0.50;0.50;;;;;16.90;95237.00;;;;5052736;28;20193;-63
2023/04/23 10:12:54;;;;;;;0.70;0.70;;;;;17.40;95234.00;;;;5052732;28;20587;-64
2023/04/23 10:15:25;;;;;;;0.60;0.60;;;;;17.50;95223.00;;;;5052275;28;20315;-63
2023/04/23 10:17:53;;;;;;;0.50;0.50;;;;;17.90;95233.00;;;;5052809;28;20187;-63
2023/04/23 10:20:22;;;;;;;0.40;0.40;;;;;17.60;95227.00;;;;5052799;28;20219;-65
2023/04/23 10:22:49;;;;;;;0.50;0.50;;;;;18.10;95221.00;;;;5052485;28;20245;-63
2023/04/23 10:25:19;;;;;;;0.80;0.80;;;;;18.40;95217.00;;;;5052385;28;20228;-62
2023/04/23 10:27:48;;;;;;;0.77;0.77;;;;;18.30;95222.00;;;;5052409;28;20195;-63
2023/04/23 10:30:16;;;;;;;0.67;0.57;;;;;18.10;95224.00;;;;5052322;28;20567;-63
2023/04/23 10:32:47;;;;;;;0.93;0.90;;;;;17.70;95215.00;;;;5052509;28;20192;-63
2023/04/23 10:35:15;;;;;;;3.73;0.70;;;;;17.90;95208.00;;;;5052501;28;20216;-63
2023/04/23 10:37:44;;;;;;;0.63;0.63;;;;;18.40;95208.00;;;;5052550;28;20604;-63
2023/04/23 10:40:15;;;;;;;0.53;0.53;;;;;17.70;95203.00;;;;5052492;28;20235;-63
2023/04/23 10:42:44;;;;;;;0.70;0.70;;;;;17.50;95193.00;;;;5052536;28;20655;-62
2023/04/23 10:45:15;;;;;;;0.50;0.50;;;;;18.20;95189.00;;;;5052496;28;20220;-62
2023/04/23 10:47:45;;;;;;;0.80;0.80;;;;;18.50;95202.00;;;;5055807;28;20238;-63
2023/04/23 10:50:34;;;;;;;0.60;0.60;;;;;18.10;95191.00;;;;5056086;28;20739;-63
2023/04/23 10:53:03;;;;;;;0.50;0.50;;;;;18.00;95198.00;;;;5056083;28;20180;-63
2023/04/23 10:55:31;;;;;;;0.60;0.60;;;;;17.60;95204.00;;;;5055597;28;20212;-63
2023/04/23 10:58:01;;;;;;;0.60;0.60;;;;;17.80;95171.00;;;;5055679;28;20203;-63
2023/04/23 11:00:30;;;;;;;0.60;0.60;;;;;18.30;95184.00;;;;5055581;28;20216;-63
2023/04/23 11:02:59;;;;;;;0.50;0.50;;;;;17.40;95186.00;;;;5056180;28;20531;-63
2023/04/23 11:05:28;;;;;;;0.60;0.60;;;;;17.70;95185.00;;;;5037598;28;20220;-63
2023/04/23 11:08:06;;;;;;;0.50;0.50;;;;;17.50;95187.00;;;;5055509;28;20686;-64
2023/04/23 11:10:34;;;;;;;0.60;0.60;;;;;16.60;95190.00;;;;5055988;28;20184;-64
2023/04/23 11:13:25;;;;;;;0.63;0.63;;;;;16.40;95185.00;;;;5055604;28;20207;-64
2023/04/23 11:16:21;;;;;;;0.40;0.40;;;;;17.10;95180.00;;;;5045036;28;20203;-64
2023/04/23 11:19:02;;;;;;;0.40;0.40;;;;;17.40;95172.00;;;;5009798;28;20617;-64
2023/04/23 11:21:58;;;;;;;0.67;0.67;;;;;17.20;95182.00;;;;5055338;28;20188;-64
2023/04/23 11:24:28;;;;;;;0.60;0.60;;;;;16.70;95175.00;;;;5055013;28;20266;-64
2023/04/23 11:26:56;;;;;;;0.40;0.40;;;;;17.00;95164.00;;;;5055159;28;20200;-63
2023/04/23 11:29:24;;;;;;;0.60;0.60;;;;;17.00;95161.00;;;;5055125;28;20249;-64
2023/04/23 11:31:52;;;;;;;0.70;0.70;;;;;17.20;95134.00;;;;5055548;28;20203;-65
2023/04/23 11:34:21;;;;;;;0.60;0.60;;;;;17.10;95139.00;;;;5055005;28;20330;-64
2023/04/23 11:36:51;;;;;;;0.50;0.50;;;;;17.50;95133.00;;;;5037061;28;20204;-64
2023/04/23 11:39:19;;;;;;;0.70;0.70;;;;;17.50;95120.00;;;;5054834;28;20208;-64
2023/04/23 11:41:46;;;;;;;1.10;1.00;;;;;17.80;95117.00;;;;5055111;28;20210;-65
2023/04/23 11:44:14;;;;;;;0.80;0.80;;;;;18.20;95111.00;;;;5054753;28;20695;-63
2023/04/23 11:46:42;;;;;;;0.70;0.70;;;;;19.30;95128.00;;;;5055052;28;20621;-63
2023/04/23 11:49:09;;;;;;;0.50;0.50;;;;;19.50;95132.00;;;;5055046;28;20188;-62
2023/04/23 11:51:43;;;;;;;0.40;0.40;;;;;19.20;95136.00;;;;5054650;28;20608;-64
2023/04/23 11:54:12;;;;;;;0.50;0.50;;;;;19.20;95127.00;;;;5054549;28;20251;-64
2023/04/23 11:56:40;;;;;;;0.50;0.50;;;;;19.20;95131.00;;;;5054663;28;20670;-64
2023/04/23 11:59:08;;;;;;;0.77;0.77;;;;;18.40;95101.00;;;;5054064;28;20220;-64
2023/04/23 12:01:46;;;;;;;0.70;0.70;;;;;18.20;95099.00;;;;5036545;28;20677;-64
2023/04/23 12:04:15;;;;;;;0.73;0.73;;;;;18.80;95094.00;;;;5054715;28;20786;-64
2023/04/23 12:06:45;;;;;;;0.50;0.50;;;;;19.50;95095.00;;;;5054375;28;20196;-62
2023/04/23 12:09:14;;;;;;;0.43;0.43;;;;;20.10;95083.00;;;;5054606;28;20595;-63
2023/04/23 12:11:43;;;;;;;0.67;0.63;;;;;19.20;95080.00;;;;5055006;28;20242;-63
2023/04/23 12:14:12;;;;;;;0.40;0.40;;;;;19.70;95074.00;;;;5054322;28;20212;-63
2023/04/23 12:16:41;;;;;;;0.50;0.50;;;;;19.40;95079.00;;;;5036286;28;20574;-63
2023/04/23 12:19:10;;;;;;;0.50;0.50;;;;;19.80;95065.00;;;;5054035;28;20211;-63
2023/04/23 12:21:52;;;;;;;0.40;0.40;;;;;19.70;95055.00;;;;5054020;28;20203;-64
2023/04/23 12:24:20;;;;;;;0.50;0.50;;;;;20.10;95052.00;;;;5054089;28;20269;-63